Dryfork, Kentucky
Current Conditions -  °F | °C
As of 1:35 PM on Monday 22 Dec 2014 (Local Time) from KGLW Reporting Station
Overcast Overcast  
Wind Chill: 55°   Ceiling: 2700
Heat Index: 55°   Visibility: 10mi
Dew Point: 43°   Wind: 9mph
Humidity: 64%   Direction: 160°SSE
Pressure: 29.79"   Gusts: 16mph
Location:  36.8107°N, 85.8992°W
Report Text: KGLW 221935Z AUTO 16008G14KT 10SM OVC027 13/06 A2979 RMK AO2 T01260060
Loading
Personal Weather Stations






























Interactive Weather Map New forecast layout! Learn more

10-Day Weather Forecast

Advertisements
Track Severe Weather on mobile